Scout — WDI8661 — position and weather

sailwx.info

Track history (hours):
 
Tides and Currents Weather Stations Pressure Air Temp Water Temp Dewpoint Dewpoint Depression Visibility Wind Speed Wind Dir Waves Ship Positions

Scout

Owner: Harley Marine Services, Inc, Seattle, WA. More information available from US FCC via Universal Licensing System and Coast Guard Vessel Documentation Center.

Last reported at 2017-Nov-23 10:30 UTC. Time now 2017-Nov-23 10:59 UTC.
Position N 29°42' W 095°03'.

Length 23 m; draft 3.3 m.

Type: Towing. MMSI: 367740860.

Date/timePositionNaut miles runAvg speedWind from/ knotsBaromVisibWave heightAir tempDewpointWater temp
2017-Nov-23 10:30N 29°42' W 095°03'0 0.0
2017-Nov-23 09:51N 29°42' W 095°03'0 0.0
2017-Nov-23 09:29N 29°42' W 095°03'0 0.0
2017-Nov-23 08:42N 29°42' W 095°03'0 0.0
2017-Nov-23 08:28N 29°42' W 095°03'0 0.0
2017-Nov-23 07:54N 29°42' W 095°03'0 0.0
2017-Nov-23 07:29N 29°42' W 095°03'0 0.0
2017-Nov-23 07:00N 29°42' W 095°03'0 0.0
2017-Nov-23 06:29N 29°42' W 095°03'0 0.0
2017-Nov-23 06:00N 29°42' W 095°03'0 0.0
2017-Nov-23 05:28N 29°42' W 095°03'0 0.0
2017-Nov-23 04:55N 29°42' W 095°03'0 0.0
2017-Nov-23 04:29N 29°42' W 095°03'0 0.0
2017-Nov-23 04:00N 29°42' W 095°03'0 0.0
2017-Nov-23 03:28N 29°42' W 095°03'0 0.0
2017-Nov-23 02:40N 29°42' W 095°03'0 0.0
2017-Nov-23 02:23N 29°42' W 095°03'0 0.0
2017-Nov-23 01:55N 29°42' W 095°03'0 0.0
2017-Nov-23 01:20N 29°42' W 095°03'0 0.0
2017-Nov-23 01:00N 29°42' W 095°03'0 0.0
2017-Nov-23 00:30N 29°42' W 095°03'0 0.0
2017-Nov-22 23:59N 29°42' W 095°03'0 0.0
2017-Nov-22 23:30N 29°42' W 095°03'0 0.0
2017-Nov-22 23:00N 29°42' W 095°03'0 0.0
2017-Nov-22 21:56N 29°42' W 095°03'0 0.0
2017-Nov-22 21:31N 29°42' W 095°03'0 0.1
2017-Nov-22 20:59N 29°42' W 095°03'0 0.0
2017-Nov-22 20:28N 29°42' W 095°03'0 0.0
2017-Nov-22 19:49N 29°42' W 095°03'1 2.2
2017-Nov-22 19:16N 29°42' W 095°01'  
2017-Nov-20 00:27N 29°42' W 095°03'0 0.0
2017-Nov-19 23:46N 29°42' W 095°03'0 0.0
2017-Nov-19 23:30N 29°42' W 095°03'1 2.9
2017-Nov-19 23:00N 29°42' W 095°01'5 9.3
2017-Nov-19 22:30N 29°39' W 094°58'3 6.4
2017-Nov-19 22:00N 29°37' W 095°01'0 0.6
2017-Nov-19 21:30N 29°37' W 095°01'0 0.0
2017-Nov-19 21:00N 29°37' W 095°01'0 0.0
2017-Nov-19 20:18N 29°37' W 095°01'0 0.0
2017-Nov-19 20:00N 29°37' W 095°01'0 0.0
2017-Nov-19 19:29N 29°37' W 095°01'0 0.0
2017-Nov-19 18:52N 29°37' W 095°01'0 0.0
2017-Nov-19 18:30N 29°37' W 095°01'0 0.0
2017-Nov-19 17:56N 29°37' W 095°01'0 0.0
2017-Nov-19 17:22N 29°37' W 095°01'0 0.8
2017-Nov-19 17:00N 29°37' W 095°01'3 6.2
2017-Nov-19 16:30N 29°38' W 094°58'4 8.8
2017-Nov-19 16:00N 29°42' W 094°60'3 5.8
2017-Nov-19 15:30N 29°42' W 095°03'0 0.0
2017-Nov-19 13:27N 29°42' W 095°03'0 0.0
2017-Nov-19 12:43N 29°42' W 095°03'0 0.0
2017-Nov-19 12:18N 29°42' W 095°03'0 0.0
2017-Nov-19 11:56N 29°42' W 095°03'0 0.0
2017-Nov-19 11:30N 29°42' W 095°03'0 0.0
2017-Nov-19 10:53N 29°42' W 095°03'0 0.0
2017-Nov-19 10:22N 29°42' W 095°03'0 0.0
2017-Nov-19 09:59N 29°42' W 095°03'0 0.0
2017-Nov-19 09:22N 29°42' W 095°03'0 0.0
2017-Nov-19 08:55N 29°42' W 095°03'0 0.0
2017-Nov-19 08:22N 29°42' W 095°03'0 0.0
2017-Nov-19 07:10N 29°42' W 095°03'0 0.2
2017-Nov-19 06:53N 29°42' W 095°03'2 4.2
2017-Nov-19 06:30N 29°44' W 095°01'3 0.5
2017-Nov-18 23:56N 29°46' W 095°05'4 8.5
2017-Nov-18 23:26N 29°43' W 095°01'1 0.0
2017-Nov-17 13:08N 29°42' W 095°03'0 0.0
2017-Nov-17 08:29N 29°42' W 095°03'1 1.7
2017-Nov-17 07:56N 29°42' W 095°02'2 5.8
2017-Nov-17 07:30N 29°44' W 095°03'4 6.7
2017-Nov-17 06:58N 29°44' W 095°08'4 8.5
2017-Nov-17 06:30N 29°44' W 095°12'1 0.3
2017-Nov-17 01:48N 29°43' W 095°13'0 0.0
2017-Nov-17 01:21N 29°43' W 095°13'0 0.4
2017-Nov-17 01:00N 29°44' W 095°14'2 3.8
2017-Nov-17 00:30N 29°45' W 095°12'4 8.3
2017-Nov-16 23:59N 29°44' W 095°07'3 6.2
2017-Nov-16 23:30N 29°44' W 095°03'2 3.6
2017-Nov-16 23:00N 29°42' W 095°03'0 0.5
2017-Nov-16 22:29N 29°42' W 095°03'0 0.0
2017-Nov-16 21:54N 29°42' W 095°03'0 0.0
2017-Nov-16 16:54N 29°42' W 095°03'0 0.1
2017-Nov-16 16:30N 29°42' W 095°03'0 0.0
2017-Nov-16 16:00N 29°42' W 095°03'0 0.0
2017-Nov-16 15:30N 29°42' W 095°03'0 0.0
2017-Nov-16 15:00N 29°42' W 095°03'0 0.0
2017-Nov-16 14:30N 29°42' W 095°03'0 0.0
2017-Nov-16 14:00N 29°42' W 095°03'0 0.0
2017-Nov-16 13:30N 29°42' W 095°03'0 0.0
2017-Nov-16 13:00N 29°42' W 095°03'0 0.0
2017-Nov-16 12:29N 29°42' W 095°03'0 0.0
2017-Nov-16 12:00N 29°42' W 095°03'0 0.0
2017-Nov-16 11:30N 29°42' W 095°03'0 0.0
2017-Nov-16 11:00N 29°42' W 095°03'0 0.0
2017-Nov-16 10:30N 29°42' W 095°03'0 0.0
2017-Nov-16 10:00N 29°42' W 095°03'0 0.0
2017-Nov-16 09:30N 29°42' W 095°03'0 0.0
2017-Nov-16 09:00N 29°42' W 095°03'0 0.0
2017-Nov-16 08:30N 29°42' W 095°03'0 0.0
2017-Nov-16 08:00N 29°42' W 095°03'0 0.0
2017-Nov-16 07:30N 29°42' W 095°03'0 0.0
2017-Nov-16 07:00N 29°42' W 095°03'0 0.0
2017-Nov-16 06:30N 29°42' W 095°03'0 0.0
2017-Nov-16 06:00N 29°42' W 095°03'0 0.0
2017-Nov-16 05:30N 29°42' W 095°03'0 0.0
2017-Nov-16 05:00N 29°42' W 095°03'0 0.0
2017-Nov-16 04:30N 29°42' W 095°03'0 0.0
2017-Nov-16 04:00N 29°42' W 095°03'0 0.0
2017-Nov-16 03:30N 29°42' W 095°03'0 0.0
2017-Nov-16 03:00N 29°42' W 095°03'0 0.0
2017-Nov-16 02:30N 29°42' W 095°03'0 0.0
2017-Nov-16 02:00N 29°42' W 095°03'0 0.0
2017-Nov-16 01:30N 29°42' W 095°03'0 0.0
2017-Nov-16 01:00N 29°42' W 095°03'0 0.0
2017-Nov-16 00:30N 29°42' W 095°03'0 0.0
2017-Nov-16 00:00N 29°42' W 095°03'0 0.0
2017-Nov-15 23:30N 29°42' W 095°03'0 0.0
2017-Nov-15 23:00N 29°42' W 095°03'0 0.0
2017-Nov-15 22:30N 29°42' W 095°03'0 0.0
2017-Nov-15 22:00N 29°42' W 095°03'0 0.0
2017-Nov-15 21:30N 29°42' W 095°03'0 0.0
2017-Nov-15 21:00N 29°42' W 095°03'0 0.0
2017-Nov-15 20:30N 29°42' W 095°03'0 0.0
2017-Nov-15 20:00N 29°42' W 095°03'0 0.0
2017-Nov-15 19:30N 29°42' W 095°03'0 0.0
2017-Nov-15 19:00N 29°42' W 095°03'0 0.0
2017-Nov-15 18:30N 29°42' W 095°03'0 0.0
2017-Nov-15 18:00N 29°42' W 095°03'0 0.0
2017-Nov-15 17:28N 29°42' W 095°03'0 0.0
2017-Nov-15 17:00N 29°42' W 095°03'0 0.0
2017-Nov-15 16:30N 29°42' W 095°03'0 0.0
2017-Nov-15 16:00N 29°42' W 095°03'0 0.0
2017-Nov-15 15:30N 29°42' W 095°03'0 0.0
2017-Nov-15 15:00N 29°42' W 095°03'0 0.0
2017-Nov-15 14:30N 29°42' W 095°03'0 0.0
2017-Nov-15 14:00N 29°42' W 095°03'0 0.0
2017-Nov-15 13:30N 29°42' W 095°03'0 0.0
2017-Nov-15 13:00N 29°42' W 095°03'0 0.0
2017-Nov-15 12:30N 29°42' W 095°03'0 0.0
2017-Nov-15 12:00N 29°42' W 095°03'0 0.0
2017-Nov-15 11:30N 29°42' W 095°03'0 0.0
2017-Nov-15 11:00N 29°42' W 095°03'0 0.0
2017-Nov-15 10:30N 29°42' W 095°03'0 0.0
2017-Nov-15 10:00N 29°42' W 095°03'0 0.0
2017-Nov-15 09:30N 29°42' W 095°03'0 0.0
2017-Nov-15 09:00N 29°42' W 095°03'0 0.0
2017-Nov-15 08:30N 29°42' W 095°03'0 0.0
2017-Nov-15 08:00N 29°42' W 095°03'0 0.0
2017-Nov-15 07:30N 29°42' W 095°03'0 0.0
2017-Nov-15 07:00N 29°42' W 095°03'0 0.0
2017-Nov-15 06:30N 29°42' W 095°03'0 0.0
2017-Nov-15 06:00N 29°42' W 095°03'0 0.0
2017-Nov-15 05:30N 29°42' W 095°03'0 0.0
2017-Nov-15 05:00N 29°42' W 095°03'0 0.0
2017-Nov-15 04:30N 29°42' W 095°03'0 0.0
2017-Nov-15 04:00N 29°42' W 095°03'0 0.0
2017-Nov-15 03:30N 29°42' W 095°03'0 0.0
2017-Nov-15 03:00N 29°42' W 095°03'1 2.2
2017-Nov-15 02:28N 29°42' W 095°01'3 6.8
2017-Nov-15 01:59N 29°45' W 095°04'3 3.7
2017-Nov-15 01:17N 29°47' W 095°04'0 0.0
2017-Nov-15 01:00N 29°47' W 095°04'0 0.0
2017-Nov-15 00:21N 29°47' W 095°04'0 0.0
2017-Nov-15 00:00N 29°47' W 095°04'0 0.0
2017-Nov-14 23:30N 29°47' W 095°04'0 0.0
2017-Nov-14 21:31N 29°47' W 095°04'1 0.4
2017-Nov-14 18:16N 29°46' W 095°05'1 0.4
2017-Nov-14 14:48N 29°47' W 095°04'0 0.0
2017-Nov-14 14:23N 29°47' W 095°04'0 0.3
2017-Nov-14 13:59N 29°47' W 095°04'1 1.5
2017-Nov-14 13:25N 29°47' W 095°05'4 7.2
2017-Nov-14 12:55N 29°44' W 095°02'1 3.6
2017-Nov-14 12:30N 29°42' W 095°03'0 0.1
2017-Nov-14 11:59N 29°43' W 095°03'0 0.0
2017-Nov-14 11:23N 29°43' W 095°03'0 0.0
2017-Nov-14 11:00N 29°43' W 095°03'0 0.0
2017-Nov-14 10:26N 29°43' W 095°03'0 0.0
2017-Nov-14 09:57N 29°43' W 095°03'0 0.0
2017-Nov-14 09:30N 29°43' W 095°03'0 0.0
2017-Nov-14 08:58N 29°43' W 095°03'0 0.0
2017-Nov-14 04:28N 29°42' W 095°03'0 0.0
2017-Nov-14 03:53N 29°42' W 095°03'0 0.0
2017-Nov-14 03:16N 29°42' W 095°03'0 0.0
2017-Nov-14 02:53N 29°42' W 095°03'0 0.0
2017-Nov-14 02:28N 29°42' W 095°03'0 0.0
2017-Nov-14 01:59N 29°42' W 095°03'0 0.0
2017-Nov-14 01:24N 29°42' W 095°03'0 0.0
2017-Nov-14 00:52N 29°42' W 095°03'0 0.0
2017-Nov-14 00:29N 29°42' W 095°03'0 0.0
2017-Nov-13 23:56N 29°42' W 095°03'0 0.0
2017-Nov-13 23:30N 29°42' W 095°03'0 0.0
2017-Nov-13 23:00N 29°42' W 095°03'0 0.0
2017-Nov-13 22:24N 29°42' W 095°03'0 0.2
2017-Nov-13 22:00N 29°43' W 095°03'  
Track history (hours):
 
Tides and Currents Weather Stations Pressure Air Temp Water Temp Dewpoint Dewpoint Depression Visibility Wind Speed Wind Dir Waves Ship Positions

Scout

Owner: Harley Marine Services, Inc, Seattle, WA. More information available from US FCC via Universal Licensing System and Coast Guard Vessel Documentation Center.

Last reported at 2017-Nov-23 10:30 UTC. Time now 2017-Nov-23 10:59 UTC.
Position N 29°42' W 095°03'.

Length 23 m; draft 3.3 m.

Type: Towing. MMSI: 367740860.

Date/timePositionNaut miles runAvg speedWind from/ knotsBaromVisibWave heightAir tempDewpointWater temp
2017-Nov-23 10:30N 29°42' W 095°03'0 0.0
2017-Nov-23 09:51N 29°42' W 095°03'0 0.0
2017-Nov-23 09:29N 29°42' W 095°03'0 0.0
2017-Nov-23 08:42N 29°42' W 095°03'0 0.0
2017-Nov-23 08:28N 29°42' W 095°03'0 0.0
2017-Nov-23 07:54N 29°42' W 095°03'0 0.0
2017-Nov-23 07:29N 29°42' W 095°03'0 0.0
2017-Nov-23 07:00N 29°42' W 095°03'0 0.0
2017-Nov-23 06:29N 29°42' W 095°03'0 0.0
2017-Nov-23 06:00N 29°42' W 095°03'0 0.0
2017-Nov-23 05:28N 29°42' W 095°03'0 0.0
2017-Nov-23 04:55N 29°42' W 095°03'0 0.0
2017-Nov-23 04:29N 29°42' W 095°03'0 0.0
2017-Nov-23 04:00N 29°42' W 095°03'0 0.0
2017-Nov-23 03:28N 29°42' W 095°03'0 0.0
2017-Nov-23 02:40N 29°42' W 095°03'0 0.0
2017-Nov-23 02:23N 29°42' W 095°03'0 0.0
2017-Nov-23 01:55N 29°42' W 095°03'0 0.0
2017-Nov-23 01:20N 29°42' W 095°03'0 0.0
2017-Nov-23 01:00N 29°42' W 095°03'0 0.0
2017-Nov-23 00:30N 29°42' W 095°03'0 0.0
2017-Nov-22 23:59N 29°42' W 095°03'0 0.0
2017-Nov-22 23:30N 29°42' W 095°03'0 0.0
2017-Nov-22 23:00N 29°42' W 095°03'0 0.0
2017-Nov-22 21:56N 29°42' W 095°03'0 0.0
2017-Nov-22 21:31N 29°42' W 095°03'0 0.1
2017-Nov-22 20:59N 29°42' W 095°03'0 0.0
2017-Nov-22 20:28N 29°42' W 095°03'0 0.0
2017-Nov-22 19:49N 29°42' W 095°03'1 2.2
2017-Nov-22 19:16N 29°42' W 095°01'  
2017-Nov-20 00:27N 29°42' W 095°03'0 0.0
2017-Nov-19 23:46N 29°42' W 095°03'0 0.0
2017-Nov-19 23:30N 29°42' W 095°03'1 2.9
2017-Nov-19 23:00N 29°42' W 095°01'5 9.3
2017-Nov-19 22:30N 29°39' W 094°58'3 6.4
2017-Nov-19 22:00N 29°37' W 095°01'0 0.6
2017-Nov-19 21:30N 29°37' W 095°01'0 0.0
2017-Nov-19 21:00N 29°37' W 095°01'0 0.0
2017-Nov-19 20:18N 29°37' W 095°01'0 0.0
2017-Nov-19 20:00N 29°37' W 095°01'0 0.0
2017-Nov-19 19:29N 29°37' W 095°01'0 0.0
2017-Nov-19 18:52N 29°37' W 095°01'0 0.0
2017-Nov-19 18:30N 29°37' W 095°01'0 0.0
2017-Nov-19 17:56N 29°37' W 095°01'0 0.0
2017-Nov-19 17:22N 29°37' W 095°01'0 0.8
2017-Nov-19 17:00N 29°37' W 095°01'3 6.2
2017-Nov-19 16:30N 29°38' W 094°58'4 8.8
2017-Nov-19 16:00N 29°42' W 094°60'3 5.8
2017-Nov-19 15:30N 29°42' W 095°03'0 0.0
2017-Nov-19 13:27N 29°42' W 095°03'0 0.0
2017-Nov-19 12:43N 29°42' W 095°03'0 0.0
2017-Nov-19 12:18N 29°42' W 095°03'0 0.0
2017-Nov-19 11:56N 29°42' W 095°03'0 0.0
2017-Nov-19 11:30N 29°42' W 095°03'0 0.0
2017-Nov-19 10:53N 29°42' W 095°03'0 0.0
2017-Nov-19 10:22N 29°42' W 095°03'0 0.0
2017-Nov-19 09:59N 29°42' W 095°03'0 0.0
2017-Nov-19 09:22N 29°42' W 095°03'0 0.0
2017-Nov-19 08:55N 29°42' W 095°03'0 0.0
2017-Nov-19 08:22N 29°42' W 095°03'0 0.0
2017-Nov-19 07:10N 29°42' W 095°03'0 0.2
2017-Nov-19 06:53N 29°42' W 095°03'2 4.2
2017-Nov-19 06:30N 29°44' W 095°01'3 0.5
2017-Nov-18 23:56N 29°46' W 095°05'4 8.5
2017-Nov-18 23:26N 29°43' W 095°01'1 0.0
2017-Nov-17 13:08N 29°42' W 095°03'0 0.0
2017-Nov-17 08:29N 29°42' W 095°03'1 1.7
2017-Nov-17 07:56N 29°42' W 095°02'2 5.8
2017-Nov-17 07:30N 29°44' W 095°03'4 6.7
2017-Nov-17 06:58N 29°44' W 095°08'4 8.5
2017-Nov-17 06:30N 29°44' W 095°12'1 0.3
2017-Nov-17 01:48N 29°43' W 095°13'0 0.0
2017-Nov-17 01:21N 29°43' W 095°13'0 0.4
2017-Nov-17 01:00N 29°44' W 095°14'2 3.8
2017-Nov-17 00:30N 29°45' W 095°12'4 8.3
2017-Nov-16 23:59N 29°44' W 095°07'3 6.2
2017-Nov-16 23:30N 29°44' W 095°03'2 3.6
2017-Nov-16 23:00N 29°42' W 095°03'0 0.5
2017-Nov-16 22:29N 29°42' W 095°03'0 0.0
2017-Nov-16 21:54N 29°42' W 095°03'0 0.0
2017-Nov-16 16:54N 29°42' W 095°03'0 0.1
2017-Nov-16 16:30N 29°42' W 095°03'0 0.0
2017-Nov-16 16:00N 29°42' W 095°03'0 0.0
2017-Nov-16 15:30N 29°42' W 095°03'0 0.0
2017-Nov-16 15:00N 29°42' W 095°03'0 0.0
2017-Nov-16 14:30N 29°42' W 095°03'0 0.0
2017-Nov-16 14:00N 29°42' W 095°03'0 0.0
2017-Nov-16 13:30N 29°42' W 095°03'0 0.0
2017-Nov-16 13:00N 29°42' W 095°03'0 0.0
2017-Nov-16 12:29N 29°42' W 095°03'0 0.0
2017-Nov-16 12:00N 29°42' W 095°03'0 0.0
2017-Nov-16 11:30N 29°42' W 095°03'0 0.0
2017-Nov-16 11:00N 29°42' W 095°03'0 0.0
2017-Nov-16 10:30N 29°42' W 095°03'0 0.0
2017-Nov-16 10:00N 29°42' W 095°03'0 0.0
2017-Nov-16 09:30N 29°42' W 095°03'0 0.0
2017-Nov-16 09:00N 29°42' W 095°03'0 0.0
2017-Nov-16 08:30N 29°42' W 095°03'0 0.0
2017-Nov-16 08:00N 29°42' W 095°03'0 0.0
2017-Nov-16 07:30N 29°42' W 095°03'0 0.0
2017-Nov-16 07:00N 29°42' W 095°03'0 0.0
2017-Nov-16 06:30N 29°42' W 095°03'0 0.0
2017-Nov-16 06:00N 29°42' W 095°03'0 0.0
2017-Nov-16 05:30N 29°42' W 095°03'0 0.0
2017-Nov-16 05:00N 29°42' W 095°03'0 0.0
2017-Nov-16 04:30N 29°42' W 095°03'0 0.0
2017-Nov-16 04:00N 29°42' W 095°03'0 0.0
2017-Nov-16 03:30N 29°42' W 095°03'0 0.0
2017-Nov-16 03:00N 29°42' W 095°03'0 0.0
2017-Nov-16 02:30N 29°42' W 095°03'0 0.0
2017-Nov-16 02:00N 29°42' W 095°03'0 0.0
2017-Nov-16 01:30N 29°42' W 095°03'0 0.0
2017-Nov-16 01:00N 29°42' W 095°03'0 0.0
2017-Nov-16 00:30N 29°42' W 095°03'0 0.0
2017-Nov-16 00:00N 29°42' W 095°03'0 0.0
2017-Nov-15 23:30N 29°42' W 095°03'0 0.0
2017-Nov-15 23:00N 29°42' W 095°03'0 0.0
2017-Nov-15 22:30N 29°42' W 095°03'0 0.0
2017-Nov-15 22:00N 29°42' W 095°03'0 0.0
2017-Nov-15 21:30N 29°42' W 095°03'0 0.0
2017-Nov-15 21:00N 29°42' W 095°03'0 0.0
2017-Nov-15 20:30N 29°42' W 095°03'0 0.0
2017-Nov-15 20:00N 29°42' W 095°03'0 0.0
2017-Nov-15 19:30N 29°42' W 095°03'0 0.0
2017-Nov-15 19:00N 29°42' W 095°03'0 0.0
2017-Nov-15 18:30N 29°42' W 095°03'0 0.0
2017-Nov-15 18:00N 29°42' W 095°03'0 0.0
2017-Nov-15 17:28N 29°42' W 095°03'0 0.0
2017-Nov-15 17:00N 29°42' W 095°03'0 0.0
2017-Nov-15 16:30N 29°42' W 095°03'0 0.0
2017-Nov-15 16:00N 29°42' W 095°03'0 0.0
2017-Nov-15 15:30N 29°42' W 095°03'0 0.0
2017-Nov-15 15:00N 29°42' W 095°03'0 0.0
2017-Nov-15 14:30N 29°42' W 095°03'0 0.0
2017-Nov-15 14:00N 29°42' W 095°03'0 0.0
2017-Nov-15 13:30N 29°42' W 095°03'0 0.0
2017-Nov-15 13:00N 29°42' W 095°03'0 0.0
2017-Nov-15 12:30N 29°42' W 095°03'0 0.0
2017-Nov-15 12:00N 29°42' W 095°03'0 0.0
2017-Nov-15 11:30N 29°42' W 095°03'0 0.0
2017-Nov-15 11:00N 29°42' W 095°03'0 0.0
2017-Nov-15 10:30N 29°42' W 095°03'0 0.0
2017-Nov-15 10:00N 29°42' W 095°03'0 0.0
2017-Nov-15 09:30N 29°42' W 095°03'0 0.0
2017-Nov-15 09:00N 29°42' W 095°03'0 0.0
2017-Nov-15 08:30N 29°42' W 095°03'0 0.0
2017-Nov-15 08:00N 29°42' W 095°03'0 0.0
2017-Nov-15 07:30N 29°42' W 095°03'0 0.0
2017-Nov-15 07:00N 29°42' W 095°03'0 0.0
2017-Nov-15 06:30N 29°42' W 095°03'0 0.0
2017-Nov-15 06:00N 29°42' W 095°03'0 0.0
2017-Nov-15 05:30N 29°42' W 095°03'0 0.0
2017-Nov-15 05:00N 29°42' W 095°03'0 0.0
2017-Nov-15 04:30N 29°42' W 095°03'0 0.0
2017-Nov-15 04:00N 29°42' W 095°03'0 0.0
2017-Nov-15 03:30N 29°42' W 095°03'0 0.0
2017-Nov-15 03:00N 29°42' W 095°03'1 2.2
2017-Nov-15 02:28N 29°42' W 095°01'3 6.8
2017-Nov-15 01:59N 29°45' W 095°04'3 3.7
2017-Nov-15 01:17N 29°47' W 095°04'0 0.0
2017-Nov-15 01:00N 29°47' W 095°04'0 0.0
2017-Nov-15 00:21N 29°47' W 095°04'0 0.0
2017-Nov-15 00:00N 29°47' W 095°04'0 0.0
2017-Nov-14 23:30N 29°47' W 095°04'0 0.0
2017-Nov-14 21:31N 29°47' W 095°04'1 0.4
2017-Nov-14 18:16N 29°46' W 095°05'1 0.4
2017-Nov-14 14:48N 29°47' W 095°04'0 0.0
2017-Nov-14 14:23N 29°47' W 095°04'0 0.3
2017-Nov-14 13:59N 29°47' W 095°04'1 1.5
2017-Nov-14 13:25N 29°47' W 095°05'4 7.2
2017-Nov-14 12:55N 29°44' W 095°02'1 3.6
2017-Nov-14 12:30N 29°42' W 095°03'0 0.1
2017-Nov-14 11:59N 29°43' W 095°03'0 0.0
2017-Nov-14 11:23N 29°43' W 095°03'0 0.0
2017-Nov-14 11:00N 29°43' W 095°03'0 0.0
2017-Nov-14 10:26N 29°43' W 095°03'0 0.0
2017-Nov-14 09:57N 29°43' W 095°03'0 0.0
2017-Nov-14 09:30N 29°43' W 095°03'0 0.0
2017-Nov-14 08:58N 29°43' W 095°03'0 0.0
2017-Nov-14 04:28N 29°42' W 095°03'0 0.0
2017-Nov-14 03:53N 29°42' W 095°03'0 0.0
2017-Nov-14 03:16N 29°42' W 095°03'0 0.0
2017-Nov-14 02:53N 29°42' W 095°03'0 0.0
2017-Nov-14 02:28N 29°42' W 095°03'0 0.0
2017-Nov-14 01:59N 29°42' W 095°03'0 0.0
2017-Nov-14 01:24N 29°42' W 095°03'0 0.0
2017-Nov-14 00:52N 29°42' W 095°03'0 0.0
2017-Nov-14 00:29N 29°42' W 095°03'0 0.0
2017-Nov-13 23:56N 29°42' W 095°03'0 0.0
2017-Nov-13 23:30N 29°42' W 095°03'0 0.0
2017-Nov-13 23:00N 29°42' W 095°03'0 0.0
2017-Nov-13 22:24N 29°42' W 095°03'0 0.2
2017-Nov-13 22:00N 29°43' W 095°03'  

Dump ship's entire track history